Go Pro

Invesco BulletShares 2028 Corporate Bond ETF (BSCS) Institutional Ownership

Invesco BulletShares 2028 Corporate Bond ETF logo
$20.30 -0.01 (-0.05%)
As of 09/4/2026 03:59 PM Eastern

Institutional Ownership Changes (13F Filings) for Invesco BulletShares 2028 Corporate Bond ETF (NASDAQ:BSCS)

Number of
Institutional Buyers
(last 12 months)
305
Total
Institutional Inflows
(last 12 months)
$631.92M
Number of
Institutional Sellers
(last 12 months)
90
Total
Institutional Outflows
(last 12 months)
$105.01M
Get BSCS Insider Trade Alerts

Want to know when executives and insiders are buying or selling Invesco BulletShares 2028 Corporate Bond ETF stock? Sign up for InsiderTrades.com's daily newsletter to get the latest insider transactions delivered to your inbox daily.

SMS is currently available in Australia, Belgium, Canada, France, Germany, Ireland, Italy, New Zealand, the Netherlands, Singapore, South Africa, Spain, Switzerland, the United Kingdom, and the United States. By entering your phone number and clicking the sign-up button, you agree to receive periodic text messages from MarketBeat at the phone number you submitted, including texts that may be sent using an automatic telephone dialing system. Message and data rates may apply. Message frequency will vary. Messages will consist of stock alerts, news stories, and partner advertisements/offers. Consent is not a condition of the purchase of any goods or services. Text HELP for help/customer support. Unsubscribe at any time by replying "STOP" to any text message that you receive from MarketBeat or by visiting our mailing preferences page. Read our full terms of service and privacy policy.
Skip Chart & View Institutional Buying and Selling Data

BSCS Institutional Buying and Selling by Quarter

Invesco BulletShares 2028 Corporate Bond ETF Major Shareholders & Ownership History

Reporting DateMajor Shareholder NameShares HeldMarket Value% of PortfolioQuarterly Change in SharesOwnership in CompanyDetails
9/2/2026 Kinetic Wealth Investment Advisors LLC170,776$3.48M1.6%N/A0.097%
8/23/2026 Guardian Wealth Advisors LLC NC50,546$1.03M0.1%-9.5%0.029%
8/23/2026 Straight Path Wealth Management559,555$11.40M2.6%+3.8%0.319%
8/23/2026 Wedmont Private Capital26,795$546K0.0%N/A0.015%
8/23/2026 Kintra Wealth LLC275,747$5.62M0.3%+15.1%0.157%
8/23/2026 Semitam Bonam LLC93,696$1.91M1.4%+3.7%0.053%
8/22/2026 Tassel Capital Management Inc.21,175$431K0.2%+15.2%0.012%
8/22/2026 Kickstand Ventures LLC.281,720$5.74M1.0%+579.0%0.161%
8/22/2026 Concurrent Investment Advisors LLC39,013$794K0.0%+251.4%0.022%
8/21/2026 Independence Bank of Kentucky59,070$1.20M0.1%+5.1%0.034%
8/20/2026 Gill Capital Partners LLC147,367$3.00M0.8%-0.7%0.084%
7/10/2026 Butensky & Cohen Financial Security Inc.76,941$1.57M0.4%+3.5%0.044%
7/10/2026 Whitener Capital Management Inc.148,307$3.02M0.6%+14.2%0.085%
7/10/2026 City Holding Co.43,090$877K0.1%N/A0.025%
7/10/2026 SMI Advisory Services LLC18,958$386K0.1%+10.4%0.011%
7/10/2026 Wealthcare Advisory Partners LLC23,583$480K0.0%+28.3%0.014%
7/9/2026 Sax Wealth Advisors LLC46,409$948K0.0%+23.3%0.027%
7/9/2026 Oliver Luxxe Assets LLC138,589$2.82M0.4%-6.7%0.080%
7/9/2026 Everpar Advisors LLC73,940$1.51M0.4%+12.4%0.043%
7/9/2026 Hennion & Walsh Asset Management Inc.140,057$2.85M0.1%-5.2%0.081%
7/9/2026 Legacy Wealth Management LLC MS45,795$933K0.2%-1.6%0.026%
7/9/2026 Ledgewood Wealth Advisors LLC450,040$9.17M4.9%+3.4%0.260%
7/8/2026 Meriwether Wealth & Planning LLC345,990$7.05M3.5%+1,855.0%0.200%
7/8/2026 RVW Wealth LLC19,518$397K0.0%+7.0%0.011%
7/8/2026 Matthew Goff Investment Advisor LLC156,188$3.18M0.5%+115.8%0.090%
7/8/2026 Apella Capital LLC51,835$1.06M0.0%+1.5%0.030%
7/8/2026 Red Spruce Capital LLC441,224$8.99M3.1%+0.9%0.255%
7/8/2026 Clark Asset Management LLC1,260,419$25.67M2.0%+13.5%0.729%
7/7/2026 Dynamic Advisor Solutions LLC115,075$2.34M0.1%+40.6%0.067%
7/7/2026 Tlwm1,647,457$33.55M5.5%+1.9%0.953%
7/6/2026 Somerset Trust Co10,747$219K0.1%N/A0.006%
7/6/2026 Trilogy Capital Inc.242,601$4.94M0.2%+4.3%0.140%
7/1/2026 Eastern Bank6,686$136K0.0%-12.5%0.004%
6/3/2026 NewEdge Advisors LLC635,427$12.98M0.0%+1.0%0.376%
6/1/2026 Financial Solutions Advisory Group Inc.358,422$7.32M1.0%N/A0.212%
5/29/2026 Asset Dedication LLC769,824$15.72M1.1%-2.8%0.455%
5/27/2026 Allen Capital Group LLC31,698$647K0.1%-6.4%0.019%
5/22/2026Coastline Complete Wealth LLC253,230$5.17M3.2%+52.2%0.150%
5/19/2026 Bank of America Corp DE4,466,656$91.22M0.0%+20.2%2.642%
5/19/2026 Arkadios Wealth Advisors22,061$451K0.0%-6.7%0.013%
Elon Musk’s Hushed FCC Filing. Sept 25th. (Ad)

Elon Musk quietly filed a document with the federal government tied to artificial intelligence, one of the largest markets in the world. James Altucher, who previously flagged Nvidia in 2008 and Bitcoin in 2013, says the filing could rival Tesla, SpaceX and xAI combined. Few investors know this filing exists, but that is expected to change quickly.tc pixel

Click here to see details on Elon Musk's newest AI filing
5/18/2026 Royal Bank of Canada2,117,083$43.24M0.0%+24.2%1.252%
5/16/2026 Excelsior Advisor Network LLC16,765$342K0.1%N/A0.010%
5/15/2026Northeast Financial Group Inc.13,170$269K0.1%N/A0.008%
5/14/2026 FCA Corp TX88,804$1.81M0.5%+12.1%0.053%
5/14/2026 Davis R M Inc.1,296,772$26.48M0.5%+7.6%0.767%
5/14/2026 Lido Advisors LLC4,921,699$100.52M0.3%-7.9%2.911%
5/13/2026 Cetera Investment Advisers451,567$9.22M0.0%+18.4%0.267%
5/13/2026 Wealthspire Retirement LLC22,781$465K0.0%+14.6%0.013%
5/13/2026 Goepper Burkhardt LLC620,564$12.67M4.2%+7.3%0.367%
5/7/2026 Hanover Advisors Inc.62,426$1.28M0.5%-2.0%0.037%
5/7/2026 Continuum Wealth Advisors LLC73,299$1.50M0.6%+40.5%0.043%
5/7/2026 Pacific Wealth Strategies Group Inc.126,693$2.59M1.6%+29.0%0.075%
5/7/2026 Decker Wealth Management LLC328,987$6.72M1.5%N/A0.195%
5/6/2026 Gryphon Financial Partners LLC33,339$681K0.1%N/A0.020%
5/6/2026 Advisortrust Partners LLC3,635$74K0.0%N/A0.002%
5/6/2026 Oder Investment Management LLC57,292$1.17M0.9%+34.9%0.034%
5/6/2026 Independent Financial Group LLC42,005$858K0.0%N/A0.025%
5/5/2026 Geneos Wealth Management Inc.200,295$4.09M0.1%+4.5%0.118%
5/5/2026 Fusion Family Wealth LLC2,247,101$45.89M3.4%+7.5%1.329%
5/5/2026 Sanctuary Advisors LLC633,787$12.94M0.1%+33.6%0.375%
5/5/2026 Sigma Planning Corp48,751$996K0.0%+3.0%0.029%
5/4/2026 Milestones Private Investment Advisors LLC126,572$2.59M2.3%-2.0%0.075%
5/4/2026 Empirical Financial Services LLC d.b.a. Empirical Wealth Management167,748$3.43M0.1%+1.2%0.099%
5/4/2026 TFR Capital LLC.118,289$2.42M0.7%N/A0.070%
5/4/2026 Parr Mcknight Wealth Management Group LLC287,200$5.87M0.8%+11.7%0.170%
5/4/2026 Vantage Point Financial LLC42,993$878K0.3%-1.5%0.025%
5/4/2026 Paradiem LLC350,608$7.16M1.6%N/A0.207%
5/2/2026 International Assets Investment Management LLC3,980$81K0.0%+81.2%0.002%
5/2/2026Anchor Investment Management LLC1,153,205$23.55M2.0%+6.1%0.682%
5/2/2026 Castleview Partners LLC11,364$232K0.1%N/A0.007%
5/2/2026 ARQ Wealth Advisors LLC10,000$204K0.0%N/A0.006%
5/2/2026 Diversify Wealth Management LLC12,359$252K0.0%N/A0.007%
5/2/2026 Valmark Advisers Inc.23,346$477K0.0%+42.6%0.014%
5/2/2026 Carnegie Investment Counsel343,290$7.01M0.1%+11.6%0.203%
5/2/2026 SFE Investment Counsel340,798$6.96M1.1%+7.6%0.202%
5/1/2026 Fifth Third Bancorp41,043$838K0.0%+1,733.1%0.024%
5/1/2026 Sequoia Financial Advisors LLC930,658$19.01M0.1%-3.9%0.552%
5/1/2026 Independence Bank of Kentucky56,190$1.15M0.1%+4.8%0.033%
5/1/2026 Carmel Capital Partners LLC317,898$6.49M2.3%+6.7%0.188%
4/30/2026 Beacon Financial Group64,762$1.32M0.1%-3.4%0.038%
4/30/2026 Kestra Advisory Services LLC434,858$8.88M0.0%+5.7%0.258%
4/29/2026 Richmond Investment Services LLC96,226$1.97M0.3%+5.1%0.057%
4/29/2026 Cvfg LLC453,297$9.26M1.2%N/A0.269%
4/29/2026 Montag A & Associates Inc.43,660$892K0.0%-10.0%0.026%
4/29/2026 ArborFi Advisors LLC71,127$1.45M1.2%+3.7%0.042%
4/29/2026 Meitav Investment House Ltd.41,781$852K0.0%-4.8%0.025%
4/29/2026 Unified Investment Management29,460$602K0.6%+4.8%0.017%
4/28/2026 Kathmere Capital Management LLC29,449$601K0.0%+24.2%0.017%
4/28/2026 Ascentis Independent Advisors15,241$311K0.0%N/A0.009%
4/28/2026 Stephens Inc. AR166,383$3.40M0.0%+10.6%0.099%
The ultimate IPO unicorn before Labor Day (Ad)

Anthropic is now valued at over $1 trillion, more than every U.S. airline combined and larger than the U.S. defense budget. Its annualized revenue grew 80x in the first quarter, and an IPO could arrive as early as October. For a limited time, investors can access a report detailing how to explore a pre-IPO stake in Anthropic for $29, a 94% discount off the retail price. The package includes a year of Disruptors and Dominators, monthly stock ideas, and four special reports.tc pixel

Claim the discounted Anthropic pre-IPO report before Monday night's deadline.
4/28/2026 Berger Financial Group Inc226,425$4.62M0.3%-0.5%0.134%
4/27/2026 Apeiron RIA LLC63,603$1.30M0.3%+17.1%0.038%
4/27/2026 HB Wealth Management LLC27,789$568K0.0%+6.2%0.017%
4/27/2026 Private Advisor Group LLC326,447$6.67M0.0%+20.3%0.194%
4/25/2026 Livet Wealth LLC125,966$2.57M1.6%+3.2%0.075%
4/25/2026 GPM Growth Investors Inc.663,921$13.56M5.7%+0.2%0.395%
4/25/2026 4Thought Financial Group Inc.42,508$868K0.4%+6.9%0.025%
4/24/2026 Financial Life Planners52,371$1.07M0.8%-3.0%0.031%
4/24/2026 American Institute for Advanced Investment Management LLP43,676$892K0.5%+15.0%0.026%
4/24/2026 Key Financial Inc105,332$2.15M0.4%+47.5%0.063%


BSCS Institutional Ownership - Frequently Asked Questions

During the previous two years, 413 institutional investors and hedge funds held shares of Invesco BulletShares 2028 Corporate Bond ETF. The most heavily invested institutionals were Morgan Stanley ($177.78M), Wells Fargo & Company MN ($161.26M), LPL Financial LLC ($150.05M), Raymond James Financial Inc. ($129.03M), Lido Advisors LLC ($100.52M), TruWealth Advisors LLC ($92.21M), and Bank of America Corp DE ($91.22M).Learn more on Invesco BulletShares 2028 Corporate Bond ETF's institutional investors.

Of the 397 institutional investors that purchased Invesco BulletShares 2028 Corporate Bond ETF's stock in the last 24 months, the following investors and hedge funds have bought the highest volume of shares: Raymond James Financial Inc. ($6.72M), LPL Financial LLC ($3.98M), Laurel Wealth Advisors LLC ($2.90M), Jane Street Group LLC ($2.68M), Fusion Family Wealth LLC ($2.27M), TruWealth Advisors LLC ($1.76M), and Rothschild Wealth LLC ($1.66M).

Institutional investors have bought a total of 30,748,267 shares in the last 24 months. This purchase volume represents approximately $631.92M in transactions.

Of the 90 institutional investors that sold Invesco BulletShares 2028 Corporate Bond ETF's stock in the last 24 months, the following investors and hedge funds have sold the highest volume of shares: Laurel Wealth Advisors LLC ($2.67M), Lido Advisors LLC ($658.48K), BCS Wealth Management ($342.80K), VestGen Advisors LLC ($155.34K), Phoenix Financial Ltd. ($127.53K), Aptus Capital Advisors LLC ($121.41K), and Red Spruce Capital LLC ($106.40K).

Institutional investors have sold a total of 5,110,560 shares in the last 24 months. This volume of shares sold represents approximately $105.01M in transactions.



Institutional ownership data for NASDAQ:BSCS is compiled from quarterly 13F filings submitted to the U.S. Securities and Exchange Commission (SEC), with the most recent received on 9/2/2026. New 13F filings are added each quarter as they're published.
From Our Partners